createdAt,value
2023-05-20T00:00:12.745Z,16.70
2023-05-20T00:02:43.447Z,16.75
2023-05-20T00:05:16.365Z,16.77
2023-05-20T00:07:48.001Z,19.63
2023-05-20T00:10:17.600Z,19.33
2023-05-20T00:12:48.338Z,14.90
2023-05-20T00:15:20.079Z,19.40
2023-05-20T00:17:50.988Z,28.38
2023-05-20T00:20:19.905Z,19.92
2023-05-20T00:22:55.675Z,20.95
2023-05-20T00:25:28.659Z,20.27
2023-05-20T00:27:57.525Z,24.77
2023-05-20T00:30:28.278Z,19.45
2023-05-20T00:33:01.068Z,26.17
2023-05-20T00:35:31.068Z,23.33
2023-05-20T00:38:07.225Z,15.93
2023-05-20T00:40:47.715Z,18.60
2023-05-20T00:43:30.074Z,18.65
2023-05-20T00:46:01.266Z,17.52
2023-05-20T00:48:46.893Z,17.50
2023-05-20T00:51:20.865Z,15.50
2023-05-20T00:53:53.279Z,16.80
2023-05-20T00:56:27.720Z,22.17
2023-05-20T00:59:03.439Z,15.57
2023-05-20T01:01:34.338Z,22.42
2023-05-20T01:04:08.400Z,19.80
2023-05-20T01:06:48.453Z,20.17
2023-05-20T01:09:25.591Z,18.48
2023-05-20T01:12:04.653Z,18.30
2023-05-20T01:14:45.949Z,22.38
2023-05-20T01:17:19.524Z,19.55
2023-05-20T01:19:51.185Z,17.83
2023-05-20T01:22:28.707Z,20.27
2023-05-20T01:25:00.351Z,19.20
2023-05-20T01:27:32.519Z,20.00
2023-05-20T01:30:14.018Z,19.23
2023-05-20T01:32:49.599Z,18.15
2023-05-20T01:35:26.212Z,18.38
2023-05-20T01:37:58.916Z,18.77
2023-05-20T01:40:31.092Z,18.35
2023-05-20T01:43:04.485Z,13.95
2023-05-20T01:45:35.867Z,20.35
2023-05-20T01:48:07.898Z,18.92
2023-05-20T01:50:38.282Z,21.15
2023-05-20T01:53:10.774Z,23.38
2023-05-20T01:55:41.148Z,20.98
2023-05-20T01:58:11.612Z,20.60
2023-05-20T02:00:41.909Z,19.67
2023-05-20T02:03:15.580Z,21.88
2023-05-20T02:05:49.391Z,21.13
2023-05-20T02:08:23.649Z,16.80
2023-05-20T02:10:52.741Z,15.43
2023-05-20T02:13:23.368Z,19.88
2023-05-20T02:15:54.874Z,16.83
2023-05-20T02:18:26.883Z,18.52
2023-05-20T02:20:57.240Z,18.55
2023-05-20T02:23:28.664Z,18.58
2023-05-20T02:25:58.181Z,14.02
2023-05-20T02:28:30.335Z,16.55
2023-05-20T02:31:00.164Z,15.90
2023-05-20T02:33:30.743Z,24.63
2023-05-20T02:36:03.067Z,23.80
2023-05-20T02:38:36.237Z,20.88
2023-05-20T02:41:06.398Z,23.67
2023-05-20T02:43:36.602Z,13.52
2023-05-20T02:46:08.712Z,23.38
2023-05-20T02:48:39.772Z,23.25
2023-05-20T02:51:11.456Z,23.88
2023-05-20T02:53:44.931Z,22.45
2023-05-20T02:56:23.475Z,17.55
2023-05-20T02:58:57.045Z,18.27
2023-05-20T03:01:30.774Z,17.95
2023-05-20T03:04:01.287Z,20.83
2023-05-20T03:06:32.448Z,20.05
2023-05-20T03:09:08.583Z,25.35
2023-05-20T03:11:37.974Z,16.98
2023-05-20T03:14:16.715Z,18.58
2023-05-20T03:16:49.153Z,17.75
2023-05-20T03:19:20.849Z,17.17
2023-05-20T03:21:53.005Z,23.33
2023-05-20T03:24:27.311Z,13.73
2023-05-20T03:26:58.979Z,16.05
2023-05-20T03:29:30.765Z,20.23
2023-05-20T03:32:02.380Z,16.02
2023-05-20T03:34:34.873Z,15.35
2023-05-20T03:37:04.161Z,20.25
2023-05-20T03:39:36.133Z,19.17
2023-05-20T03:42:05.739Z,16.75
2023-05-20T03:44:37.234Z,15.48
2023-05-20T03:47:07.626Z,20.35
2023-05-20T03:49:38.122Z,13.77
2023-05-20T03:52:10.027Z,18.13
2023-05-20T03:54:41.159Z,17.10
2023-05-20T03:57:12.324Z,21.25
2023-05-20T03:59:44.859Z,21.38
2023-05-20T04:02:14.702Z,20.58
2023-05-20T04:04:45.177Z,22.05
2023-05-20T04:07:17.592Z,16.42
2023-05-20T04:09:49.403Z,23.05
2023-05-20T04:12:23.525Z,14.93
2023-05-20T04:14:56.782Z,21.02
2023-05-20T04:17:28.654Z,17.50
2023-05-20T04:20:02.504Z,13.80
2023-05-20T04:22:33.223Z,14.48
2023-05-20T04:25:08.976Z,16.23
2023-05-20T04:27:42.176Z,21.45
2023-05-20T04:30:14.209Z,18.65
2023-05-20T04:32:46.370Z,16.85
2023-05-20T04:35:19.371Z,19.25
2023-05-20T04:37:53.405Z,18.02
2023-05-20T04:40:28.035Z,20.13
2023-05-20T04:43:01.129Z,17.75
2023-05-20T04:45:38.205Z,18.42
2023-05-20T04:48:09.851Z,15.18
2023-05-20T04:50:42.260Z,17.00
2023-05-20T04:53:22.050Z,21.13
2023-05-20T04:56:05.070Z,16.73
2023-05-20T04:58:34.877Z,15.57
2023-05-20T05:01:08.443Z,16.52
2023-05-20T05:03:46.802Z,18.88
2023-05-20T05:06:23.281Z,15.88
2023-05-20T05:08:53.147Z,12.35
2023-05-20T05:11:28.619Z,16.15
2023-05-20T05:13:59.758Z,15.40
2023-05-20T05:16:32.481Z,13.82
2023-05-20T05:19:02.407Z,18.42
2023-05-20T05:21:32.266Z,15.48
2023-05-20T05:24:03.817Z,13.88
2023-05-20T05:26:40.225Z,13.23
2023-05-20T05:29:12.421Z,14.40
2023-05-20T05:31:51.201Z,12.20
2023-05-20T05:34:24.869Z,15.30
2023-05-20T05:36:54.710Z,16.75
2023-05-20T05:39:26.185Z,15.88
2023-05-20T05:41:59.631Z,13.10
2023-05-20T05:44:32.123Z,16.25
2023-05-20T05:47:03.839Z,13.02
2023-05-20T05:49:35.344Z,12.65
2023-05-20T05:52:12.096Z,13.10
2023-05-20T05:54:42.738Z,13.00
2023-05-20T05:57:20.017Z,16.67
2023-05-20T05:59:50.538Z,13.82
2023-05-20T06:02:24.404Z,10.98
2023-05-20T06:04:55.068Z,12.75
2023-05-20T06:07:25.617Z,11.25
2023-05-20T06:09:54.824Z,20.65
2023-05-20T06:12:25.322Z,12.05
2023-05-20T06:14:56.706Z,10.60
2023-05-20T06:17:35.377Z,8.75
2023-05-20T06:20:20.816Z,10.60
2023-05-20T06:22:49.755Z,13.10
2023-05-20T06:25:23.211Z,8.50
2023-05-20T06:27:59.304Z,13.05
2023-05-20T06:30:30.378Z,12.32
2023-05-20T06:33:01.353Z,9.85
2023-05-20T06:35:35.170Z,12.63
2023-05-20T06:38:05.293Z,12.60
2023-05-20T06:40:34.448Z,10.95
2023-05-20T06:43:06.694Z,12.05
2023-05-20T06:45:35.999Z,12.20
2023-05-20T06:48:08.000Z,14.70
2023-05-20T06:50:41.697Z,9.52
2023-05-20T06:53:11.710Z,13.82
2023-05-20T06:55:42.882Z,10.50
2023-05-20T06:58:16.198Z,9.13
2023-05-20T07:00:47.596Z,11.18
2023-05-20T07:03:18.353Z,13.40
2023-05-20T07:05:50.299Z,10.60
2023-05-20T07:08:24.585Z,7.50
2023-05-20T07:11:04.536Z,11.23
2023-05-20T07:13:38.610Z,8.32
2023-05-20T07:18:40.500Z,10.30
2023-05-20T07:21:09.584Z,7.70
2023-05-20T07:23:45.196Z,6.55
2023-05-20T07:26:18.445Z,6.90
2023-05-20T07:28:54.407Z,11.32
2023-05-20T07:31:31.952Z,10.13
2023-05-20T07:34:09.942Z,6.57
2023-05-20T07:36:39.700Z,14.20
2023-05-20T07:39:15.389Z,7.00
2023-05-20T07:41:57.034Z,5.25
2023-05-20T07:44:42.082Z,6.85
2023-05-20T07:49:52.910Z,6.72
2023-05-20T07:52:26.238Z,8.18
2023-05-20T07:55:00.660Z,8.27
2023-05-20T07:57:31.130Z,6.97
2023-05-20T08:00:04.554Z,9.38
2023-05-20T08:02:36.463Z,6.25
2023-05-20T08:05:07.818Z,7.60
2023-05-20T08:07:39.570Z,8.30
2023-05-20T08:10:13.037Z,7.75
2023-05-20T08:12:44.020Z,5.13
2023-05-20T08:15:17.424Z,6.25
2023-05-20T08:17:46.880Z,10.95
2023-05-20T08:20:17.327Z,5.78
2023-05-20T08:22:48.846Z,7.47
2023-05-20T08:25:30.477Z,6.13
2023-05-20T08:28:07.949Z,6.35
2023-05-20T08:30:39.606Z,7.00
2023-05-20T08:35:57.862Z,5.63
2023-05-20T08:38:29.740Z,11.32
2023-05-20T08:41:03.740Z,8.05
2023-05-20T08:43:42.975Z,4.70
2023-05-20T08:46:30.865Z,12.75
2023-05-20T08:49:02.283Z,9.07
2023-05-20T08:51:35.732Z,5.50
2023-05-20T08:54:14.075Z,4.60
2023-05-20T08:56:44.759Z,4.95
2023-05-20T08:59:22.302Z,5.70
2023-05-20T09:01:57.151Z,10.13
2023-05-20T09:04:29.827Z,20.95
2023-05-20T09:07:04.940Z,7.93
2023-05-20T09:12:18.284Z,17.17
2023-05-20T09:17:56.857Z,13.80
2023-05-20T09:20:47.852Z,7.68
2023-05-20T09:23:26.634Z,4.35
2023-05-20T09:25:57.327Z,8.90
2023-05-20T09:28:28.698Z,4.75
2023-05-20T09:31:04.063Z,4.22
2023-05-20T09:36:58.366Z,2.88
2023-05-20T09:39:31.897Z,3.35
2023-05-20T09:42:19.213Z,8.18
2023-05-20T09:44:50.275Z,14.27
2023-05-20T09:47:20.028Z,3.67
2023-05-20T09:49:55.544Z,7.38
2023-05-20T09:52:31.958Z,4.88
2023-05-20T09:55:07.199Z,5.25
2023-05-20T09:57:43.688Z,3.63
2023-05-20T10:00:24.043Z,5.03
2023-05-20T10:02:55.150Z,7.85
2023-05-20T10:09:53.508Z,5.95
2023-05-20T10:12:39.972Z,5.30
2023-05-20T10:18:53.982Z,7.03
2023-05-20T10:24:10.371Z,5.93
2023-05-20T10:26:46.885Z,3.78
2023-05-20T10:29:21.293Z,3.75
2023-05-20T10:31:56.608Z,8.97
2023-05-20T10:34:27.614Z,5.25
2023-05-20T10:37:05.414Z,5.10
2023-05-20T10:39:38.547Z,7.32
2023-05-20T10:42:11.561Z,5.70
2023-05-20T10:44:47.647Z,5.32
2023-05-20T10:47:25.240Z,5.80
2023-05-20T10:49:55.769Z,5.13
2023-05-20T10:52:27.265Z,5.22
2023-05-20T10:55:00.733Z,3.70
2023-05-20T10:57:36.787Z,6.03
2023-05-20T11:05:45.006Z,5.07
2023-05-20T11:10:49.040Z,5.07
2023-05-20T11:13:21.045Z,3.72
2023-05-20T11:15:53.418Z,5.00
2023-05-20T11:18:22.554Z,3.13
2023-05-20T11:20:51.356Z,7.10
2023-05-20T11:23:20.209Z,3.35
2023-05-20T11:25:49.175Z,7.38
2023-05-20T11:28:21.586Z,3.75
2023-05-20T11:30:51.792Z,4.50
2023-05-20T11:33:23.190Z,8.77
2023-05-20T11:35:54.295Z,4.43
2023-05-20T11:38:25.940Z,5.30
2023-05-20T11:40:57.477Z,5.70
2023-05-20T11:43:27.958Z,6.80
2023-05-20T11:46:00.085Z,4.47
2023-05-20T11:48:30.337Z,4.28
2023-05-20T11:51:01.321Z,7.22
2023-05-20T11:53:30.941Z,5.20
2023-05-20T11:56:01.378Z,4.25
2023-05-20T11:58:33.384Z,7.75
2023-05-20T12:01:13.186Z,6.68
2023-05-20T12:03:50.809Z,7.05
2023-05-20T12:06:19.900Z,4.05
2023-05-20T12:08:51.500Z,3.30
2023-05-20T12:11:21.881Z,5.88
2023-05-20T12:13:52.086Z,5.53
2023-05-20T12:16:20.688Z,3.70
2023-05-20T12:18:49.389Z,8.00
2023-05-20T12:21:18.016Z,7.57
2023-05-20T12:23:46.822Z,5.88
2023-05-20T12:26:15.536Z,5.88
2023-05-20T12:28:45.021Z,5.07
2023-05-20T12:31:15.688Z,7.78
2023-05-20T12:33:47.684Z,5.28
2023-05-20T12:36:17.429Z,3.38
2023-05-20T12:38:48.819Z,6.72
2023-05-20T12:41:23.034Z,6.57
2023-05-20T12:43:57.812Z,4.45
2023-05-20T12:46:44.319Z,13.10
2023-05-20T12:49:12.796Z,5.88
2023-05-20T12:51:41.283Z,4.38
2023-05-20T12:54:09.785Z,6.53
2023-05-20T12:56:38.168Z,9.05
2023-05-20T12:59:06.513Z,3.83
2023-05-20T13:01:36.221Z,8.68
2023-05-20T13:04:04.944Z,7.55
2023-05-20T13:06:33.575Z,6.47
2023-05-20T13:09:02.784Z,5.03
2023-05-20T13:11:33.051Z,6.80
2023-05-20T13:14:01.731Z,7.00
2023-05-20T13:16:30.563Z,12.07
2023-05-20T13:19:03.354Z,7.28
2023-05-20T13:21:32.200Z,4.05
2023-05-20T13:24:01.273Z,9.35
2023-05-20T13:26:30.847Z,5.78
2023-05-20T13:29:00.009Z,12.73
2023-05-20T13:34:46.291Z,5.95
2023-05-20T13:37:16.165Z,6.43
2023-05-20T13:39:47.640Z,3.38
2023-05-20T13:42:21.299Z,7.45
2023-05-20T13:44:49.756Z,5.68
2023-05-20T13:47:18.349Z,3.63
2023-05-20T13:49:49.247Z,6.07
2023-05-20T13:52:17.851Z,4.38
2023-05-20T13:54:47.573Z,6.88
2023-05-20T13:57:16.459Z,5.20
2023-05-20T13:59:45.269Z,6.68
2023-05-20T14:02:14.562Z,7.32
2023-05-20T14:04:45.195Z,7.90
2023-05-20T14:07:15.414Z,5.43
2023-05-20T14:09:44.003Z,5.47
2023-05-20T14:12:12.772Z,5.30
2023-05-20T14:14:41.572Z,4.68
2023-05-20T14:17:10.821Z,3.63
2023-05-20T14:19:39.750Z,4.88
2023-05-20T14:22:08.428Z,3.83
2023-05-20T14:24:38.575Z,6.68
2023-05-20T14:27:07.565Z,8.43
2023-05-20T14:29:39.556Z,4.90
2023-05-20T14:32:09.114Z,4.97
2023-05-20T14:34:37.722Z,4.90
2023-05-20T14:37:09.850Z,4.70
2023-05-20T14:39:42.562Z,3.25
2023-05-20T14:42:10.882Z,4.35
2023-05-20T14:44:39.208Z,5.85
2023-05-20T14:47:07.567Z,3.33
2023-05-20T14:49:37.131Z,6.18
2023-05-20T14:52:07.668Z,4.28
2023-05-20T14:54:36.298Z,3.20
2023-05-20T14:57:07.495Z,3.58
2023-05-20T14:59:36.046Z,9.55
2023-05-20T15:02:05.626Z,5.78
2023-05-20T15:04:37.001Z,4.32
2023-05-20T15:07:06.819Z,12.25
2023-05-20T15:09:35.206Z,5.00
2023-05-20T15:12:05.188Z,5.07
2023-05-20T15:14:34.082Z,2.28
2023-05-20T15:17:02.508Z,6.55
2023-05-20T15:19:33.227Z,4.85
2023-05-20T15:22:01.604Z,5.90
2023-05-20T15:24:29.884Z,5.38
2023-05-20T15:26:58.610Z,7.00
2023-05-20T15:29:28.302Z,4.80
2023-05-20T15:31:56.625Z,6.63
2023-05-20T15:34:25.080Z,3.30
2023-05-20T15:36:53.421Z,6.80
2023-05-20T15:39:22.215Z,6.53
2023-05-20T15:41:52.091Z,3.58
2023-05-20T15:44:20.684Z,10.80
2023-05-20T15:46:51.118Z,5.32
2023-05-20T15:49:19.722Z,4.68
2023-05-20T15:52:02.419Z,3.08
2023-05-20T15:54:32.044Z,7.95
2023-05-20T15:57:01.469Z,6.45
2023-05-20T15:59:30.416Z,5.78
2023-05-20T16:02:09.325Z,3.85
2023-05-20T16:04:38.345Z,3.65
2023-05-20T16:07:10.157Z,4.95
2023-05-20T16:09:39.138Z,4.97
2023-05-20T16:12:12.389Z,3.80
2023-05-20T16:14:41.216Z,7.60
2023-05-20T16:17:16.601Z,10.40
2023-05-20T16:19:47.315Z,8.57
2023-05-20T16:25:53.883Z,8.10
2023-05-20T16:28:26.146Z,7.25
2023-05-20T16:31:01.573Z,8.40
2023-05-20T16:33:35.877Z,5.47
2023-05-20T16:36:05.362Z,10.88
2023-05-20T16:38:34.746Z,8.68
2023-05-20T16:41:03.537Z,6.40
2023-05-20T16:43:36.646Z,9.15
2023-05-20T16:46:05.648Z,9.30
2023-05-20T16:48:36.125Z,10.70
2023-05-20T16:51:05.003Z,6.07
2023-05-20T16:53:34.494Z,7.15
2023-05-20T16:56:08.432Z,8.23
2023-05-20T16:58:36.777Z,11.70
2023-05-20T17:01:05.281Z,9.95
2023-05-20T17:03:36.394Z,10.75
2023-05-20T17:06:04.865Z,9.38
2023-05-20T17:08:33.195Z,14.60
2023-05-20T17:11:01.971Z,6.40
2023-05-20T17:13:30.532Z,6.15
2023-05-20T17:15:58.935Z,11.50
2023-05-20T17:18:27.277Z,9.93
2023-05-20T17:20:57.099Z,10.68
2023-05-20T17:23:25.480Z,10.13
2023-05-20T17:25:53.809Z,8.13
2023-05-20T17:28:22.162Z,9.50
2023-05-20T17:30:50.582Z,9.25
2023-05-20T17:33:18.923Z,12.57
2023-05-20T17:35:47.274Z,9.07
2023-05-20T17:38:16.967Z,8.57
2023-05-20T17:40:45.211Z,7.78
2023-05-20T17:43:13.666Z,7.75
2023-05-20T17:45:41.795Z,8.20
2023-05-20T17:48:11.858Z,7.45
2023-05-20T17:50:40.393Z,5.53
2023-05-20T17:53:08.913Z,11.48
2023-05-20T17:55:39.856Z,9.52
2023-05-20T17:58:08.553Z,8.63
2023-05-20T18:00:42.209Z,8.23
2023-05-20T18:03:13.734Z,8.50
2023-05-20T18:05:47.347Z,9.85
2023-05-20T18:08:15.795Z,10.40
2023-05-20T18:10:45.801Z,8.85
2023-05-20T18:13:14.576Z,7.30
2023-05-20T18:15:43.115Z,8.82
2023-05-20T18:18:12.897Z,10.07
2023-05-20T18:20:41.990Z,10.15
2023-05-20T18:23:10.508Z,8.88
2023-05-20T18:25:44.620Z,7.38
2023-05-20T18:28:15.968Z,8.55
2023-05-20T18:30:46.556Z,6.20
2023-05-20T18:33:15.108Z,8.93
2023-05-20T18:35:43.954Z,8.20
2023-05-20T18:38:12.498Z,9.20
2023-05-20T18:40:40.988Z,8.25
2023-05-20T18:43:09.797Z,12.30
2023-05-20T18:45:39.773Z,15.05
2023-05-20T18:48:08.442Z,6.95
2023-05-20T18:50:36.956Z,19.42
2023-05-20T18:53:05.797Z,9.65
2023-05-20T18:55:34.804Z,6.47
2023-05-20T18:58:03.322Z,6.75
2023-05-20T19:00:32.077Z,10.48
2023-05-20T19:03:02.052Z,5.72
2023-05-20T19:05:34.093Z,10.65
2023-05-20T19:08:06.475Z,11.73
2023-05-20T19:10:35.150Z,13.88
2023-05-20T19:13:03.655Z,5.53
2023-05-20T19:15:32.654Z,7.90
2023-05-20T19:18:05.117Z,8.73
2023-05-20T19:20:35.027Z,5.97
2023-05-20T19:23:06.548Z,8.15
2023-05-20T19:25:39.974Z,6.05
2023-05-20T19:28:10.970Z,5.43
2023-05-20T19:30:42.148Z,4.90
2023-05-20T19:33:12.886Z,6.43
2023-05-20T19:35:43.701Z,6.57
2023-05-20T19:38:18.359Z,8.65
2023-05-20T19:40:50.047Z,11.33
2023-05-20T19:43:20.650Z,6.85
2023-05-20T19:45:50.491Z,9.93
2023-05-20T19:48:22.930Z,8.57
2023-05-20T19:50:53.377Z,9.65
2023-05-20T19:53:22.973Z,6.63
2023-05-20T19:55:52.085Z,7.57
2023-05-20T19:58:23.237Z,4.88
2023-05-20T20:00:53.309Z,9.90
2023-05-20T20:03:24.686Z,9.55
2023-05-20T20:05:53.975Z,6.35
2023-05-20T20:08:24.937Z,6.10
2023-05-20T20:10:54.265Z,5.97
2023-05-20T20:13:24.043Z,6.85
2023-05-20T20:15:52.968Z,5.47
2023-05-20T20:18:27.209Z,5.78
2023-05-20T20:20:59.814Z,7.97
2023-05-20T20:23:31.348Z,7.07
2023-05-20T20:26:00.557Z,5.32
2023-05-20T20:28:35.745Z,6.38
2023-05-20T20:31:32.588Z,14.45
2023-05-20T20:34:05.168Z,8.55
2023-05-20T20:36:36.565Z,6.82
2023-05-20T20:39:07.506Z,7.65
2023-05-20T20:41:39.298Z,4.68
2023-05-20T20:44:11.843Z,4.15
2023-05-20T20:46:42.898Z,2.95
2023-05-20T20:49:14.547Z,9.15
2023-05-20T20:51:44.692Z,6.47
2023-05-20T20:54:16.922Z,6.43
2023-05-20T20:56:47.529Z,5.53
2023-05-20T20:59:19.509Z,7.78
2023-05-20T21:02:09.311Z,7.00
2023-05-20T21:04:41.324Z,5.07
2023-05-20T21:07:12.084Z,3.13
2023-05-20T21:09:41.324Z,4.95
2023-05-20T21:12:13.379Z,10.43
2023-05-20T21:14:44.519Z,10.05
2023-05-20T21:17:14.090Z,6.47
2023-05-20T21:19:44.034Z,5.03
2023-05-20T21:22:13.957Z,8.35
2023-05-20T21:24:44.035Z,4.30
2023-05-20T21:27:13.855Z,9.75
2023-05-20T21:29:43.563Z,10.88
2023-05-20T21:32:17.267Z,5.03
2023-05-20T21:34:49.957Z,5.28
2023-05-20T21:37:19.284Z,3.65
2023-05-20T21:39:48.308Z,7.57
2023-05-20T21:42:17.687Z,6.25
2023-05-20T21:44:46.679Z,5.22
2023-05-20T21:47:15.342Z,6.32
2023-05-20T21:49:50.913Z,6.28
2023-05-20T21:52:21.103Z,4.55
2023-05-20T21:54:49.766Z,6.32
2023-05-20T21:57:18.409Z,7.07
2023-05-20T21:59:46.925Z,5.38
2023-05-20T22:02:15.734Z,8.60
2023-05-20T22:04:44.319Z,5.05
2023-05-20T22:07:13.008Z,6.93
2023-05-20T22:09:42.850Z,5.53
2023-05-20T22:12:15.614Z,5.88
2023-05-20T22:14:44.462Z,6.88
2023-05-20T22:17:13.219Z,7.95
2023-05-20T22:19:41.755Z,3.63
2023-05-20T22:22:11.608Z,5.20
2023-05-20T22:24:40.055Z,5.53
2023-05-20T22:27:10.044Z,6.38
2023-05-20T22:29:38.563Z,4.68
2023-05-20T22:32:07.626Z,5.72
2023-05-20T22:34:36.382Z,4.75
2023-05-20T22:37:07.009Z,4.32
2023-05-20T22:39:35.342Z,5.57
2023-05-20T22:42:03.725Z,4.90
2023-05-20T22:44:33.711Z,5.82
2023-05-20T22:47:02.145Z,4.05
2023-05-20T22:49:30.521Z,4.30
2023-05-20T22:51:59.406Z,6.40
2023-05-20T22:54:27.784Z,4.85
2023-05-20T22:57:00.325Z,4.40
2023-05-20T22:59:31.345Z,8.40
2023-05-20T23:02:06.062Z,8.63
2023-05-20T23:04:36.904Z,5.57
2023-05-20T23:07:06.457Z,5.32
2023-05-20T23:09:34.766Z,6.18
2023-05-20T23:12:03.336Z,5.88
2023-05-20T23:14:31.932Z,6.30
2023-05-20T23:17:02.011Z,6.13
2023-05-20T23:19:30.614Z,5.65
2023-05-20T23:21:59.098Z,9.05
2023-05-20T23:24:27.786Z,6.05
2023-05-20T23:26:56.419Z,6.05
2023-05-20T23:29:24.842Z,6.10
2023-05-20T23:31:53.221Z,5.20
2023-05-20T23:34:23.161Z,6.53
2023-05-20T23:36:52.954Z,5.63
2023-05-20T23:39:21.434Z,5.82
2023-05-20T23:41:50.433Z,5.90
2023-05-20T23:44:18.908Z,5.55
2023-05-20T23:46:49.428Z,5.68
2023-05-20T23:49:18.569Z,12.48
2023-05-20T23:51:48.649Z,4.55
2023-05-20T23:54:18.062Z,4.50
2023-05-20T23:56:46.598Z,6.22
2023-05-20T23:59:15.034Z,5.32
